Pays
Station

 

Conditions  météo  pour  Lewistown Municipal  -  Etats-Unis    Etats-Unis

  
-7 °C
    
 
 

METAR pour Lewistown Municipal :

KLWT 100254Z AUTO 29006KT 1 1/2SM -SN BR OVC013 M07/M09 A3007 RMK AO2 SLP228 P0003 60006 T10671089 53007

 

Voici le bulletin pour Lewistown Municipal - Etats-Unis.
 
Le bulletin a été fait il y a 41 minutes, à 02:54 UTC .
Le vent soufflait à la vitesse de 3.1 mètres par seconde de Ouest/Nord-ouest (290°).
 
La température était de -7 °C, avec un point de rosée à -9 °C.
La température ressentie était de -12 °C.
 
La pression atmosphérique était de 1018 hPa.
L'humidité relative était de 85.6%.
 
Le ciel était nuageux à partir d'une hauteur de 396 mètres
 
La visibilité globale était de 2414 mètres.
 
Actuellement léger/legère neige plus brume.

 
 
 

Pays :   A   B   C   D   E   F   G   H   I   J   K   L   M   N   O   P   Q   R   S   T   U   V   W   Y   Z

 

Partenaires :  Info Météo avec Met'info
Météo Marine avec MeteoMarine.net
Infos Site  |  Infos Légales  |  Crédits  |  Confidentialité
Contactez-nous  |  Ajouter aux favoris
© 2013-2019 METAR - Tous droits réservés